KGWW

Wayne Executive Jetport Airport

Goldsboro, North Carolina, USA
METAR KGWW 151435Z AUTO 00000KT 10SM CLR 27/25 A3008 RMK AO2 T02730246
Observed Flight Rules
Aug-15 @ 14:35 UTC (26 minutes ago) Visual Flight Rules
Visibility Clouds
10 miles
  • Clear skies
Temperatures Readings
Current 27°C / 81°F
Dewpoint 25°C / 77°F
Humidity 89%
Altimeter 30.08" Hg
Pressure 1019 hPa
Elevation 41
METAR KGWW 151435Z AUTO 00000KT 10SM CLR 27/25 A3008 RMK AO2 T02730246
Observed Flight Rules
Aug-15 @ 14:35 UTC
(26 minutes ago)
VFR
Clouds
  • Clear skies
Temperature Dewpoint
27°C / 81°F 25°C / 77°F
Humidity Altimeter Pressure
89% 30.08" Hg 1019 hPa